createdAt,value
2023-03-04T00:00:20.841Z,6.72
2023-03-04T00:02:48.190Z,5.90
2023-03-04T00:05:14.990Z,5.75
2023-03-04T00:07:41.747Z,6.30
2023-03-04T00:10:09.245Z,6.70
2023-03-04T00:12:36.015Z,6.40
2023-03-04T00:15:03.325Z,6.53
2023-03-04T00:17:31.538Z,6.93
2023-03-04T00:19:58.958Z,6.25
2023-03-04T00:22:26.175Z,6.32
2023-03-04T00:24:53.432Z,6.00
2023-03-04T00:27:20.217Z,6.20
2023-03-04T00:29:47.084Z,5.72
2023-03-04T00:32:13.967Z,5.85
2023-03-04T00:34:43.270Z,6.15
2023-03-04T00:37:11.105Z,6.78
2023-03-04T00:39:38.694Z,6.22
2023-03-04T00:42:06.625Z,6.38
2023-03-04T00:44:33.922Z,6.55
2023-03-04T00:47:01.130Z,6.75
2023-03-04T00:49:27.909Z,6.75
2023-03-04T00:51:54.711Z,6.43
2023-03-04T00:54:21.910Z,7.22
2023-03-04T00:56:49.157Z,5.97
2023-03-04T00:59:16.419Z,6.63
2023-03-04T01:01:43.651Z,5.90
2023-03-04T01:04:10.486Z,6.72
2023-03-04T01:06:37.611Z,6.95
2023-03-04T01:09:06.008Z,5.72
2023-03-04T01:11:32.779Z,6.28
2023-03-04T01:13:59.623Z,6.90
2023-03-04T01:16:26.908Z,6.95
2023-03-04T01:18:54.442Z,6.90
2023-03-04T01:21:21.801Z,6.38
2023-03-04T01:23:49.097Z,6.13
2023-03-04T01:26:15.874Z,6.50
2023-03-04T01:28:43.090Z,6.38
2023-03-04T01:31:09.999Z,7.15
2023-03-04T01:33:37.384Z,6.55
2023-03-04T01:36:04.553Z,7.35
2023-03-04T01:38:31.557Z,7.03
2023-03-04T01:40:58.806Z,5.55
2023-03-04T01:43:28.361Z,7.05
2023-03-04T01:45:56.434Z,6.80
2023-03-04T01:48:31.327Z,6.90
2023-03-04T01:50:59.527Z,7.20
2023-03-04T01:53:28.746Z,6.95
2023-03-04T01:56:00.906Z,7.05
2023-03-04T01:58:31.774Z,6.63
2023-03-04T02:00:59.357Z,6.85
2023-03-04T02:03:26.922Z,7.65
2023-03-04T02:05:55.522Z,6.90
2023-03-04T02:08:25.051Z,7.50
2023-03-04T02:10:53.532Z,7.10
2023-03-04T02:13:21.156Z,7.57
2023-03-04T02:15:48.577Z,7.47
2023-03-04T02:18:24.173Z,7.43
2023-03-04T02:21:08.718Z,7.30
2023-03-04T02:23:53.197Z,6.28
2023-03-04T02:26:22.977Z,7.00
2023-03-04T02:28:53.602Z,7.85
2023-03-04T02:31:32.960Z,7.88
2023-03-04T02:34:06.461Z,7.68
2023-03-04T02:36:34.555Z,7.00
2023-03-04T02:39:11.777Z,7.63
2023-03-04T02:41:39.059Z,7.40
2023-03-04T02:44:20.402Z,8.40
2023-03-04T02:46:48.187Z,8.52
2023-03-04T02:49:15.864Z,6.90
2023-03-04T02:51:43.125Z,7.63
2023-03-04T02:54:21.182Z,7.75
2023-03-04T02:56:50.280Z,8.23
2023-03-04T02:59:18.266Z,7.25
2023-03-04T03:01:46.164Z,8.27
2023-03-04T03:04:13.788Z,7.60
2023-03-04T03:06:42.535Z,7.55
2023-03-04T03:09:09.880Z,7.90
2023-03-04T03:11:37.174Z,7.28
2023-03-04T03:14:05.223Z,8.55
2023-03-04T03:16:32.595Z,7.57
2023-03-04T03:18:59.474Z,7.45
2023-03-04T03:21:26.286Z,7.25
2023-03-04T03:23:53.542Z,7.45
2023-03-04T03:26:20.931Z,7.38
2023-03-04T03:28:48.013Z,7.60
2023-03-04T03:31:15.370Z,7.10
2023-03-04T03:33:47.008Z,6.97
2023-03-04T03:36:13.871Z,7.80
2023-03-04T03:38:40.743Z,7.05
2023-03-04T03:41:07.728Z,7.88
2023-03-04T03:43:34.951Z,6.70
2023-03-04T03:46:01.804Z,7.65
2023-03-04T03:48:28.721Z,7.20
2023-03-04T03:50:55.929Z,7.55
2023-03-04T03:53:23.212Z,7.70
2023-03-04T03:55:50.063Z,7.88
2023-03-04T03:58:16.846Z,8.13
2023-03-04T04:00:44.065Z,8.18
2023-03-04T04:03:17.049Z,8.40
2023-03-04T04:05:44.206Z,8.27
2023-03-04T04:08:15.484Z,7.63
2023-03-04T04:10:43.076Z,8.10
2023-03-04T04:13:10.182Z,8.82
2023-03-04T04:15:38.726Z,9.45
2023-03-04T04:18:07.078Z,8.43
2023-03-04T04:20:34.281Z,7.45
2023-03-04T04:23:01.833Z,9.13
2023-03-04T04:25:28.691Z,9.05
2023-03-04T04:27:56.070Z,9.10
2023-03-04T04:30:23.668Z,8.15
2023-03-04T04:32:50.975Z,8.93
2023-03-04T04:35:17.870Z,8.20
2023-03-04T04:37:45.139Z,9.38
2023-03-04T04:40:12.585Z,7.82
2023-03-04T04:42:39.782Z,8.32
2023-03-04T04:45:07.721Z,8.48
2023-03-04T04:47:34.473Z,8.23
2023-03-04T04:50:01.706Z,7.97
2023-03-04T04:52:28.978Z,7.55
2023-03-04T04:54:56.204Z,8.18
2023-03-04T04:57:23.028Z,8.18
2023-03-04T04:59:50.216Z,8.63
2023-03-04T05:02:17.452Z,7.38
2023-03-04T05:04:44.964Z,8.35
2023-03-04T05:07:11.840Z,8.38
2023-03-04T05:09:39.359Z,7.35
2023-03-04T05:12:06.296Z,8.05
2023-03-04T05:14:33.701Z,9.20
2023-03-04T05:17:00.468Z,8.00
2023-03-04T05:19:27.643Z,8.30
2023-03-04T05:21:54.517Z,7.75
2023-03-04T05:24:21.727Z,8.65
2023-03-04T05:26:48.961Z,8.73
2023-03-04T05:29:16.139Z,8.60
2023-03-04T05:31:44.110Z,8.65
2023-03-04T05:34:11.365Z,9.88
2023-03-04T05:36:38.570Z,8.25
2023-03-04T05:39:05.791Z,8.60
2023-03-04T05:41:33.041Z,9.38
2023-03-04T05:44:00.232Z,9.55
2023-03-04T05:46:27.103Z,9.57
2023-03-04T05:48:54.500Z,8.43
2023-03-04T05:51:22.626Z,8.50
2023-03-04T05:53:50.036Z,9.55
2023-03-04T05:56:18.909Z,8.07
2023-03-04T05:58:49.581Z,8.35
2023-03-04T06:01:16.867Z,8.98
2023-03-04T06:03:43.847Z,8.52
2023-03-04T06:06:11.262Z,7.45
2023-03-04T06:08:38.120Z,8.68
2023-03-04T06:11:05.651Z,8.00
2023-03-04T06:13:33.490Z,8.45
2023-03-04T06:16:01.137Z,9.60
2023-03-04T06:18:28.921Z,8.18
2023-03-04T06:21:00.897Z,9.32
2023-03-04T06:23:28.356Z,10.27
2023-03-04T06:25:56.586Z,10.10
2023-03-04T06:28:23.826Z,8.95
2023-03-04T06:30:54.720Z,9.73
2023-03-04T06:33:22.292Z,9.63
2023-03-04T06:35:49.395Z,8.57
2023-03-04T06:38:16.264Z,9.43
2023-03-04T06:40:44.257Z,10.18
2023-03-04T06:43:11.034Z,10.65
2023-03-04T06:45:39.392Z,10.02
2023-03-04T06:48:06.500Z,10.27
2023-03-04T06:50:33.292Z,10.00
2023-03-04T06:53:00.043Z,10.13
2023-03-04T06:55:26.920Z,9.48
2023-03-04T06:57:54.128Z,10.00
2023-03-04T07:00:21.234Z,10.25
2023-03-04T07:02:48.055Z,10.57
2023-03-04T07:05:15.236Z,10.60
2023-03-04T07:07:42.477Z,10.32
2023-03-04T07:10:10.288Z,10.88
2023-03-04T07:12:37.089Z,8.50
2023-03-04T07:15:04.262Z,9.68
2023-03-04T07:17:31.506Z,9.85
2023-03-04T07:19:58.306Z,10.20
2023-03-04T07:22:25.638Z,10.05
2023-03-04T07:24:52.963Z,8.65
2023-03-04T07:27:20.183Z,10.10
2023-03-04T07:29:47.310Z,9.88
2023-03-04T07:32:14.169Z,11.60
2023-03-04T07:34:40.963Z,10.82
2023-03-04T07:37:08.191Z,9.32
2023-03-04T07:39:34.976Z,10.75
2023-03-04T07:42:01.748Z,9.70
2023-03-04T07:44:28.639Z,10.82
2023-03-04T07:46:55.952Z,9.95
2023-03-04T07:49:23.208Z,10.40
2023-03-04T07:51:50.394Z,10.25
2023-03-04T07:54:20.074Z,12.27
2023-03-04T07:56:47.354Z,11.18
2023-03-04T07:59:14.305Z,9.80
2023-03-04T08:01:45.592Z,11.93
2023-03-04T08:04:12.773Z,11.13
2023-03-04T08:06:41.371Z,10.88
2023-03-04T08:09:10.670Z,11.10
2023-03-04T08:11:38.450Z,11.45
2023-03-04T08:14:06.327Z,10.65
2023-03-04T08:16:33.178Z,10.70
2023-03-04T08:19:02.315Z,10.50
2023-03-04T08:21:29.510Z,11.18
2023-03-04T08:23:59.607Z,12.00
2023-03-04T08:26:29.754Z,11.07
2023-03-04T08:28:57.114Z,12.00
2023-03-04T08:31:24.662Z,11.88
2023-03-04T08:33:53.012Z,12.93
2023-03-04T08:36:20.375Z,14.32
2023-03-04T08:38:47.586Z,12.38
2023-03-04T08:41:15.430Z,12.43
2023-03-04T08:43:42.459Z,12.45
2023-03-04T08:46:09.380Z,12.48
2023-03-04T08:48:37.771Z,11.90
2023-03-04T08:51:10.096Z,11.82
2023-03-04T08:53:38.201Z,12.85
2023-03-04T08:56:05.933Z,14.02
2023-03-04T08:58:32.901Z,12.90
2023-03-04T09:01:01.200Z,13.35
2023-03-04T09:03:28.652Z,14.27
2023-03-04T09:05:56.282Z,12.75
2023-03-04T09:08:23.122Z,13.82
2023-03-04T09:10:52.885Z,14.40
2023-03-04T09:13:19.706Z,15.98
2023-03-04T09:15:48.372Z,14.38
2023-03-04T09:18:16.340Z,13.98
2023-03-04T09:20:43.300Z,13.52
2023-03-04T09:23:10.455Z,13.18
2023-03-04T09:25:38.399Z,13.85
2023-03-04T09:28:06.396Z,13.98
2023-03-04T09:30:34.240Z,12.43
2023-03-04T09:33:01.558Z,11.57
2023-03-04T09:35:29.961Z,12.52
2023-03-04T09:37:58.104Z,13.50
2023-03-04T09:40:30.097Z,12.43
2023-03-04T09:43:03.389Z,14.52
2023-03-04T09:45:41.819Z,12.32
2023-03-04T09:48:15.195Z,12.55
2023-03-04T09:51:09.153Z,11.95
2023-03-04T09:53:48.092Z,11.60
2023-03-04T09:56:15.231Z,10.73
2023-03-04T09:59:02.392Z,12.57
2023-03-04T10:01:34.228Z,11.52
2023-03-04T10:04:20.726Z,12.80
2023-03-04T10:09:29.875Z,11.15
2023-03-04T10:12:06.601Z,10.65
2023-03-04T10:14:38.628Z,11.40
2023-03-04T10:17:18.877Z,9.80
2023-03-04T10:20:06.008Z,9.82
2023-03-04T10:22:37.426Z,10.23
2023-03-04T10:25:24.411Z,10.70
2023-03-04T10:27:59.170Z,10.40
2023-03-04T10:30:38.306Z,11.60
2023-03-04T10:33:27.518Z,11.75
2023-03-04T10:36:01.845Z,10.80
2023-03-04T10:38:39.129Z,10.85
2023-03-04T10:41:16.736Z,11.85
2023-03-04T10:43:49.662Z,11.98
2023-03-04T10:46:16.669Z,11.68
2023-03-04T10:48:44.839Z,11.82
2023-03-04T10:51:11.687Z,12.50
2023-03-04T10:53:41.816Z,10.70
2023-03-04T10:56:33.702Z,10.60
2023-03-04T10:59:31.763Z,9.52
2023-03-04T11:02:13.534Z,10.50
2023-03-04T11:04:40.657Z,10.68
2023-03-04T11:07:11.521Z,9.27
2023-03-04T11:09:40.422Z,10.38
2023-03-04T11:12:13.441Z,11.07
2023-03-04T11:14:49.108Z,9.45
2023-03-04T11:17:40.682Z,9.60
2023-03-04T11:20:16.412Z,9.02
2023-03-04T11:22:46.195Z,9.40
2023-03-04T11:25:27.399Z,9.00
2023-03-04T11:27:58.132Z,8.90
2023-03-04T11:30:36.687Z,10.00
2023-03-04T11:33:32.617Z,9.43
2023-03-04T11:36:28.800Z,9.57
2023-03-04T11:38:57.058Z,9.75
2023-03-04T11:41:32.241Z,10.02
2023-03-04T11:44:00.371Z,11.02
2023-03-04T11:46:59.930Z,10.30
2023-03-04T11:49:47.997Z,9.70
2023-03-04T11:52:33.470Z,9.35
2023-03-04T11:55:35.231Z,7.97
2023-03-04T11:58:26.516Z,9.27
2023-03-04T12:01:10.533Z,10.82
2023-03-04T12:03:55.634Z,10.70
2023-03-04T12:06:31.542Z,9.63
2023-03-04T12:08:58.269Z,9.65
2023-03-04T12:11:49.242Z,9.43
2023-03-04T12:14:37.637Z,9.20
2023-03-04T12:17:23.404Z,9.90
2023-03-04T12:20:24.567Z,9.63
2023-03-04T12:22:54.492Z,10.15
2023-03-04T12:25:42.154Z,10.25
2023-03-04T12:28:37.585Z,9.02
2023-03-04T12:31:19.744Z,7.97
2023-03-04T12:34:06.415Z,9.15
2023-03-04T12:39:48.209Z,8.38
2023-03-04T12:42:49.258Z,10.02
2023-03-04T12:45:25.806Z,10.40
2023-03-04T12:48:05.879Z,9.95
2023-03-04T12:50:46.814Z,9.88
2023-03-04T12:53:34.302Z,9.98
2023-03-04T12:56:04.707Z,10.68
2023-03-04T12:58:33.810Z,11.52
2023-03-04T13:01:07.606Z,11.02
2023-03-04T13:03:58.519Z,10.68
2023-03-04T13:06:43.734Z,9.90
2023-03-04T13:09:32.040Z,10.30
2023-03-04T13:12:20.375Z,10.48
2023-03-04T13:15:07.415Z,10.40
2023-03-04T13:17:44.176Z,9.55
2023-03-04T13:20:36.296Z,10.57
2023-03-04T13:23:07.087Z,10.50
2023-03-04T13:25:40.252Z,10.65
2023-03-04T13:28:09.901Z,10.38
2023-03-04T13:30:38.066Z,9.85
2023-03-04T13:33:10.840Z,9.95
2023-03-04T13:35:47.935Z,10.30
2023-03-04T13:38:25.300Z,10.18
2023-03-04T13:41:16.873Z,10.43
2023-03-04T13:43:55.145Z,10.43
2023-03-04T13:46:24.825Z,11.00
2023-03-04T13:48:51.763Z,10.02
2023-03-04T13:51:41.603Z,8.60
2023-03-04T13:54:28.643Z,9.02
2023-03-04T13:57:01.421Z,9.10
2023-03-04T13:59:42.974Z,9.60
2023-03-04T14:02:20.019Z,8.45
2023-03-04T14:04:57.419Z,9.93
2023-03-04T14:07:33.117Z,8.63
2023-03-04T14:10:07.645Z,8.98
2023-03-04T14:12:48.874Z,8.95
2023-03-04T14:15:42.135Z,7.82
2023-03-04T14:18:12.222Z,8.75
2023-03-04T14:20:48.341Z,6.97
2023-03-04T14:23:35.961Z,8.25
2023-03-04T14:26:14.752Z,8.32
2023-03-04T14:28:45.470Z,6.85
2023-03-04T14:31:18.395Z,7.22
2023-03-04T14:33:48.431Z,7.00
2023-03-04T14:36:21.777Z,7.28
2023-03-04T14:38:58.898Z,7.05
2023-03-04T14:41:35.532Z,7.90
2023-03-04T14:44:29.073Z,8.52
2023-03-04T14:47:07.843Z,7.68
2023-03-04T14:49:37.182Z,8.70
2023-03-04T14:52:04.647Z,7.97
2023-03-04T14:54:38.667Z,8.02
2023-03-04T14:57:26.748Z,9.18
2023-03-04T14:59:54.164Z,7.93
2023-03-04T15:02:35.637Z,8.27
2023-03-04T15:05:16.865Z,8.98
2023-03-04T15:07:49.570Z,8.23
2023-03-04T15:10:22.352Z,9.27
2023-03-04T15:12:55.208Z,9.45
2023-03-04T15:15:34.038Z,9.10
2023-03-04T15:18:15.487Z,9.93
2023-03-04T15:20:42.423Z,9.20
2023-03-04T15:23:14.102Z,9.30
2023-03-04T15:25:40.969Z,9.68
2023-03-04T15:28:16.714Z,8.75
2023-03-04T15:30:43.647Z,8.55
2023-03-04T15:33:12.094Z,9.20
2023-03-04T15:35:39.930Z,9.80
2023-03-04T15:38:07.851Z,8.43
2023-03-04T15:40:39.151Z,9.57
2023-03-04T15:43:06.766Z,8.35
2023-03-04T15:45:36.953Z,8.52
2023-03-04T15:48:08.011Z,9.85
2023-03-04T15:50:38.386Z,9.20
2023-03-04T15:53:10.514Z,8.57
2023-03-04T15:55:37.515Z,8.27
2023-03-04T15:58:04.627Z,9.30
2023-03-04T16:00:32.152Z,8.23
2023-03-04T16:02:59.076Z,7.63
2023-03-04T16:05:26.306Z,8.50
2023-03-04T16:07:53.706Z,7.90
2023-03-04T16:10:30.813Z,8.32
2023-03-04T16:12:58.044Z,8.70
2023-03-04T16:15:27.487Z,7.25
2023-03-04T16:17:54.838Z,8.32
2023-03-04T16:20:24.796Z,7.88
2023-03-04T16:22:55.172Z,8.95
2023-03-04T16:25:23.230Z,8.40
2023-03-04T16:27:52.270Z,8.10
2023-03-04T16:30:25.121Z,8.02
2023-03-04T16:32:52.029Z,8.50
2023-03-04T16:35:20.587Z,8.15
2023-03-04T16:37:47.834Z,8.23
2023-03-04T16:40:19.394Z,8.50
2023-03-04T16:42:46.334Z,7.28
2023-03-04T16:45:31.720Z,7.43
2023-03-04T16:47:58.520Z,7.53
2023-03-04T16:50:28.649Z,6.97
2023-03-04T16:52:56.647Z,7.57
2023-03-04T16:55:28.918Z,7.68
2023-03-04T16:57:57.894Z,6.75
2023-03-04T17:00:27.008Z,7.43
2023-03-04T17:02:59.756Z,6.38
2023-03-04T17:05:29.924Z,6.88
2023-03-04T17:07:57.379Z,7.10
2023-03-04T17:10:24.865Z,7.07
2023-03-04T17:12:52.267Z,6.90
2023-03-04T17:15:19.489Z,5.80
2023-03-04T17:17:46.761Z,5.53
2023-03-04T17:20:16.334Z,6.25
2023-03-04T17:22:43.865Z,6.82
2023-03-04T17:25:12.861Z,7.20
2023-03-04T17:27:40.264Z,6.20
2023-03-04T17:30:11.134Z,6.72
2023-03-04T17:32:40.065Z,5.53
2023-03-04T17:35:08.595Z,5.10
2023-03-04T17:37:36.161Z,5.70
2023-03-04T17:40:08.700Z,6.10
2023-03-04T17:42:35.666Z,5.55
2023-03-04T17:45:02.650Z,5.68
2023-03-04T17:47:29.633Z,5.68
2023-03-04T17:49:56.485Z,5.20
2023-03-04T17:52:23.250Z,5.47
2023-03-04T17:54:50.044Z,6.32
2023-03-04T17:57:16.926Z,6.75
2023-03-04T17:59:43.695Z,5.65
2023-03-04T18:02:16.852Z,6.18
2023-03-04T18:04:45.950Z,6.00
2023-03-04T18:07:13.114Z,5.50
2023-03-04T18:09:40.029Z,5.78
2023-03-04T18:12:07.226Z,4.72
2023-03-04T18:14:34.304Z,5.68
2023-03-04T18:17:01.121Z,5.13
2023-03-04T18:19:27.916Z,6.60
2023-03-04T18:21:54.724Z,6.05
2023-03-04T18:24:21.746Z,6.47
2023-03-04T18:26:48.933Z,5.45
2023-03-04T18:29:16.102Z,6.13
2023-03-04T18:31:43.734Z,5.80
2023-03-04T18:34:11.333Z,5.47
2023-03-04T18:36:38.189Z,6.30
2023-03-04T18:39:07.426Z,5.97
2023-03-04T18:41:34.714Z,6.35
2023-03-04T18:44:01.682Z,5.55
2023-03-04T18:46:36.110Z,6.38
2023-03-04T18:49:06.048Z,6.53
2023-03-04T18:51:34.165Z,6.10
2023-03-04T18:54:01.600Z,6.75
2023-03-04T18:56:38.168Z,6.82
2023-03-04T18:59:10.132Z,6.65
2023-03-04T19:01:37.442Z,6.78
2023-03-04T19:04:05.699Z,6.32
2023-03-04T19:06:33.828Z,7.53
2023-03-04T19:09:01.271Z,6.55
2023-03-04T19:11:29.949Z,7.20
2023-03-04T19:13:57.129Z,7.43
2023-03-04T19:16:24.995Z,7.15
2023-03-04T19:18:53.512Z,6.97
2023-03-04T19:21:20.378Z,6.32
2023-03-04T19:23:47.217Z,6.50
2023-03-04T19:26:15.392Z,6.28
2023-03-04T19:28:42.624Z,6.18
2023-03-04T19:31:11.307Z,7.22
2023-03-04T19:33:39.629Z,6.70
2023-03-04T19:36:07.471Z,6.30
2023-03-04T19:38:35.372Z,7.78
2023-03-04T19:41:13.965Z,6.32
2023-03-04T19:43:41.248Z,7.20
2023-03-04T19:46:10.307Z,6.82
2023-03-04T19:48:38.010Z,7.85
2023-03-04T19:51:12.917Z,7.43
2023-03-04T19:53:39.989Z,7.40
2023-03-04T19:56:07.772Z,7.75
2023-03-04T19:58:35.243Z,7.82
2023-03-04T20:01:02.427Z,8.43
2023-03-04T20:03:29.568Z,7.90
2023-03-04T20:06:07.528Z,8.32
2023-03-04T20:08:37.935Z,8.20
2023-03-04T20:11:12.429Z,9.35
2023-03-04T20:13:39.248Z,7.60
2023-03-04T20:16:11.046Z,8.40
2023-03-04T20:18:38.711Z,8.00
2023-03-04T20:21:06.558Z,7.47
2023-03-04T20:23:33.740Z,7.43
2023-03-04T20:26:00.989Z,8.32
2023-03-04T20:28:28.314Z,7.55
2023-03-04T20:31:12.898Z,7.43
2023-03-04T20:33:39.770Z,7.85
2023-03-04T20:36:06.811Z,7.57
2023-03-04T20:38:33.825Z,8.07
2023-03-04T20:41:00.674Z,7.90
2023-03-04T20:43:28.698Z,8.65
2023-03-04T20:45:55.628Z,7.13
2023-03-04T20:48:22.762Z,7.38
2023-03-04T20:50:49.546Z,7.82
2023-03-04T20:53:16.354Z,7.63
2023-03-04T20:55:43.174Z,8.30
2023-03-04T20:58:10.229Z,7.82
2023-03-04T21:00:38.295Z,9.35
2023-03-04T21:03:05.151Z,8.35
2023-03-04T21:05:32.070Z,7.55
2023-03-04T21:07:59.277Z,8.52
2023-03-04T21:10:26.172Z,7.75
2023-03-04T21:12:53.154Z,7.53
2023-03-04T21:15:19.975Z,8.50
2023-03-04T21:17:46.929Z,7.45
2023-03-04T21:20:15.167Z,8.32
2023-03-04T21:22:41.993Z,7.50
2023-03-04T21:25:09.196Z,7.90
2023-03-04T21:27:42.475Z,8.15
2023-03-04T21:30:11.150Z,7.38
2023-03-04T21:32:38.161Z,7.63
2023-03-04T21:35:05.728Z,8.00
2023-03-04T21:37:32.730Z,7.35
2023-03-04T21:40:01.388Z,8.00
2023-03-04T21:42:28.378Z,8.50
2023-03-04T21:44:55.310Z,8.43
2023-03-04T21:47:22.422Z,7.38
2023-03-04T21:49:49.371Z,7.45
2023-03-04T21:52:18.716Z,8.13
2023-03-04T21:54:45.841Z,7.00
2023-03-04T21:57:14.235Z,7.53
2023-03-04T21:59:41.535Z,7.70
2023-03-04T22:02:20.782Z,7.68
2023-03-04T22:04:48.312Z,7.18
2023-03-04T22:07:15.225Z,7.32
2023-03-04T22:09:42.179Z,8.00
2023-03-04T22:12:09.276Z,7.28
2023-03-04T22:14:36.183Z,7.90
2023-03-04T22:17:03.186Z,8.68
2023-03-04T22:19:32.738Z,8.18
2023-03-04T22:21:59.850Z,8.43
2023-03-04T22:24:27.512Z,8.50
2023-03-04T22:26:56.806Z,9.18
2023-03-04T22:29:23.790Z,8.32
2023-03-04T22:31:51.090Z,9.15
2023-03-04T22:34:18.662Z,7.97
2023-03-04T22:36:47.084Z,7.93
2023-03-04T22:39:16.905Z,8.48
2023-03-04T22:41:43.780Z,8.02
2023-03-04T22:44:10.777Z,9.35
2023-03-04T22:46:39.152Z,8.50
2023-03-04T22:49:11.988Z,8.25
2023-03-04T22:51:43.686Z,7.80
2023-03-04T22:54:18.565Z,7.82
2023-03-04T22:56:45.833Z,8.43
2023-03-04T22:59:13.113Z,8.82
2023-03-04T23:01:40.227Z,10.10
2023-03-04T23:04:07.205Z,8.23
2023-03-04T23:06:34.252Z,8.48
2023-03-04T23:09:01.092Z,8.40
2023-03-04T23:11:30.877Z,8.48
2023-03-04T23:14:02.104Z,9.23
2023-03-04T23:16:29.082Z,9.43
2023-03-04T23:18:59.184Z,8.88
2023-03-04T23:21:28.202Z,10.00
2023-03-04T23:23:55.166Z,8.45
2023-03-04T23:26:24.741Z,9.30
2023-03-04T23:28:51.912Z,7.78
2023-03-04T23:31:18.962Z,8.07
2023-03-04T23:33:47.668Z,9.30
2023-03-04T23:36:16.874Z,7.75
2023-03-04T23:38:45.589Z,8.88
2023-03-04T23:41:21.275Z,7.85
2023-03-04T23:43:49.003Z,8.48
2023-03-04T23:46:15.958Z,8.50
2023-03-04T23:48:46.346Z,8.18
2023-03-04T23:51:20.362Z,8.55
2023-03-04T23:53:47.888Z,8.82
2023-03-04T23:56:17.233Z,8.95
2023-03-04T23:58:44.989Z,7.63
